sensor_id;sensor_type;location;lat;lon;timestamp;P1;durP1;ratioP1;P2;durP2;ratioP2
6145;SDS011;3104;50.348;7.620;2023-05-19T00:00:34;3.37;;;1.97;;
6145;SDS011;3104;50.348;7.620;2023-05-19T00:03:01;5.93;;;1.90;;
6145;SDS011;3104;50.348;7.620;2023-05-19T00:05:27;3.07;;;1.70;;
6145;SDS011;3104;50.348;7.620;2023-05-19T00:07:55;3.70;;;1.93;;
6145;SDS011;3104;50.348;7.620;2023-05-19T00:10:23;2.20;;;1.67;;
6145;SDS011;3104;50.348;7.620;2023-05-19T00:12:54;3.40;;;2.03;;
6145;SDS011;3104;50.348;7.620;2023-05-19T00:15:20;3.07;;;2.07;;
6145;SDS011;3104;50.348;7.620;2023-05-19T00:17:46;2.30;;;1.70;;
6145;SDS011;3104;50.348;7.620;2023-05-19T00:20:12;5.70;;;1.73;;
6145;SDS011;3104;50.348;7.620;2023-05-19T00:22:38;3.50;;;2.07;;
6145;SDS011;3104;50.348;7.620;2023-05-19T00:25:04;2.77;;;2.00;;
6145;SDS011;3104;50.348;7.620;2023-05-19T00:27:30;3.20;;;2.00;;
6145;SDS011;3104;50.348;7.620;2023-05-19T00:29:56;3.37;;;1.90;;
6145;SDS011;3104;50.348;7.620;2023-05-19T00:32:21;3.90;;;1.90;;
6145;SDS011;3104;50.348;7.620;2023-05-19T00:34:47;2.23;;;1.77;;
6145;SDS011;3104;50.348;7.620;2023-05-19T00:37:13;4.20;;;2.10;;
6145;SDS011;3104;50.348;7.620;2023-05-19T00:39:38;4.10;;;2.10;;
6145;SDS011;3104;50.348;7.620;2023-05-19T00:42:04;2.07;;;1.83;;
6145;SDS011;3104;50.348;7.620;2023-05-19T00:44:30;7.10;;;2.40;;
6145;SDS011;3104;50.348;7.620;2023-05-19T00:46:56;2.83;;;1.70;;
6145;SDS011;3104;50.348;7.620;2023-05-19T00:49:21;3.03;;;2.00;;
6145;SDS011;3104;50.348;7.620;2023-05-19T00:51:47;3.73;;;1.97;;
6145;SDS011;3104;50.348;7.620;2023-05-19T00:54:13;2.60;;;2.00;;
6145;SDS011;3104;50.348;7.620;2023-05-19T00:56:39;5.70;;;2.13;;
6145;SDS011;3104;50.348;7.620;2023-05-19T00:59:05;2.80;;;1.50;;
6145;SDS011;3104;50.348;7.620;2023-05-19T01:01:32;2.40;;;1.60;;
6145;SDS011;3104;50.348;7.620;2023-05-19T01:03:57;4.30;;;1.90;;
6145;SDS011;3104;50.348;7.620;2023-05-19T01:06:24;2.10;;;1.90;;
6145;SDS011;3104;50.348;7.620;2023-05-19T01:08:51;4.67;;;1.77;;
6145;SDS011;3104;50.348;7.620;2023-05-19T01:11:17;1.87;;;1.60;;
6145;SDS011;3104;50.348;7.620;2023-05-19T01:13:43;2.97;;;1.70;;
6145;SDS011;3104;50.348;7.620;2023-05-19T01:19:05;3.67;;;1.83;;
6145;SDS011;3104;50.348;7.620;2023-05-19T01:21:49;5.13;;;2.63;;
6145;SDS011;3104;50.348;7.620;2023-05-19T01:24:50;6.83;;;4.70;;
6145;SDS011;3104;50.348;7.620;2023-05-19T01:30:33;2.57;;;1.50;;
6145;SDS011;3104;50.348;7.620;2023-05-19T01:33:07;4.03;;;2.00;;
6145;SDS011;3104;50.348;7.620;2023-05-19T01:35:36;2.67;;;1.97;;
6145;SDS011;3104;50.348;7.620;2023-05-19T01:38:03;4.37;;;2.10;;
6145;SDS011;3104;50.348;7.620;2023-05-19T01:40:31;5.50;;;2.27;;
6145;SDS011;3104;50.348;7.620;2023-05-19T01:42:58;3.53;;;1.83;;
6145;SDS011;3104;50.348;7.620;2023-05-19T01:45:26;3.13;;;1.70;;
6145;SDS011;3104;50.348;7.620;2023-05-19T01:47:55;3.37;;;2.47;;
6145;SDS011;3104;50.348;7.620;2023-05-19T01:50:22;3.73;;;1.80;;
6145;SDS011;3104;50.348;7.620;2023-05-19T01:52:47;5.63;;;1.80;;
6145;SDS011;3104;50.348;7.620;2023-05-19T01:55:13;2.43;;;1.77;;
6145;SDS011;3104;50.348;7.620;2023-05-19T02:03:06;6.27;;;2.00;;
6145;SDS011;3104;50.348;7.620;2023-05-19T02:05:51;4.30;;;2.00;;
6145;SDS011;3104;50.348;7.620;2023-05-19T02:11:35;5.70;;;2.80;;
6145;SDS011;3104;50.348;7.620;2023-05-19T02:14:18;2.40;;;2.03;;
6145;SDS011;3104;50.348;7.620;2023-05-19T02:16:56;5.17;;;2.27;;
6145;SDS011;3104;50.348;7.620;2023-05-19T02:19:24;1.83;;;1.70;;
6145;SDS011;3104;50.348;7.620;2023-05-19T02:21:54;5.80;;;2.17;;
6145;SDS011;3104;50.348;7.620;2023-05-19T02:24:20;3.00;;;1.80;;
6145;SDS011;3104;50.348;7.620;2023-05-19T02:26:47;4.00;;;2.07;;
6145;SDS011;3104;50.348;7.620;2023-05-19T02:29:16;3.37;;;1.90;;
6145;SDS011;3104;50.348;7.620;2023-05-19T02:31:41;2.63;;;2.43;;
6145;SDS011;3104;50.348;7.620;2023-05-19T02:34:07;4.10;;;2.40;;
6145;SDS011;3104;50.348;7.620;2023-05-19T02:36:33;4.93;;;2.10;;
6145;SDS011;3104;50.348;7.620;2023-05-19T02:39:00;3.37;;;2.23;;
6145;SDS011;3104;50.348;7.620;2023-05-19T02:41:27;2.50;;;1.80;;
6145;SDS011;3104;50.348;7.620;2023-05-19T02:43:52;3.53;;;2.50;;
6145;SDS011;3104;50.348;7.620;2023-05-19T02:46:18;4.53;;;3.17;;
6145;SDS011;3104;50.348;7.620;2023-05-19T02:48:44;4.07;;;2.50;;
6145;SDS011;3104;50.348;7.620;2023-05-19T02:51:09;4.00;;;3.20;;
6145;SDS011;3104;50.348;7.620;2023-05-19T02:53:35;4.53;;;3.83;;
6145;SDS011;3104;50.348;7.620;2023-05-19T02:56:01;9.63;;;3.87;;
6145;SDS011;3104;50.348;7.620;2023-05-19T02:58:26;4.17;;;2.50;;
6145;SDS011;3104;50.348;7.620;2023-05-19T03:00:52;9.73;;;3.57;;
6145;SDS011;3104;50.348;7.620;2023-05-19T03:03:17;2.53;;;2.33;;
6145;SDS011;3104;50.348;7.620;2023-05-19T03:05:43;6.00;;;2.37;;
6145;SDS011;3104;50.348;7.620;2023-05-19T03:08:09;4.20;;;3.33;;
6145;SDS011;3104;50.348;7.620;2023-05-19T03:10:35;4.43;;;2.37;;
6145;SDS011;3104;50.348;7.620;2023-05-19T03:13:01;4.70;;;2.23;;
6145;SDS011;3104;50.348;7.620;2023-05-19T03:15:26;4.60;;;2.20;;
6145;SDS011;3104;50.348;7.620;2023-05-19T03:17:52;2.23;;;1.90;;
6145;SDS011;3104;50.348;7.620;2023-05-19T03:20:17;6.20;;;3.23;;
6145;SDS011;3104;50.348;7.620;2023-05-19T03:22:43;2.00;;;1.80;;
6145;SDS011;3104;50.348;7.620;2023-05-19T03:25:09;6.97;;;2.97;;
6145;SDS011;3104;50.348;7.620;2023-05-19T03:27:34;2.90;;;2.20;;
6145;SDS011;3104;50.348;7.620;2023-05-19T03:30:00;3.87;;;1.90;;
6145;SDS011;3104;50.348;7.620;2023-05-19T03:32:25;2.13;;;1.93;;
6145;SDS011;3104;50.348;7.620;2023-05-19T03:34:51;2.33;;;2.10;;
6145;SDS011;3104;50.348;7.620;2023-05-19T03:37:16;2.83;;;2.20;;
6145;SDS011;3104;50.348;7.620;2023-05-19T03:39:42;2.30;;;1.97;;
6145;SDS011;3104;50.348;7.620;2023-05-19T03:42:07;3.77;;;2.17;;
6145;SDS011;3104;50.348;7.620;2023-05-19T03:44:33;5.90;;;2.17;;
6145;SDS011;3104;50.348;7.620;2023-05-19T03:46:59;4.70;;;4.20;;
6145;SDS011;3104;50.348;7.620;2023-05-19T03:49:24;2.57;;;2.37;;
6145;SDS011;3104;50.348;7.620;2023-05-19T03:51:50;2.30;;;1.70;;
6145;SDS011;3104;50.348;7.620;2023-05-19T03:54:15;3.00;;;2.27;;
6145;SDS011;3104;50.348;7.620;2023-05-19T03:56:41;12.97;;;10.90;;
6145;SDS011;3104;50.348;7.620;2023-05-19T03:59:07;23.03;;;15.50;;
6145;SDS011;3104;50.348;7.620;2023-05-19T04:01:34;20.20;;;13.20;;
6145;SDS011;3104;50.348;7.620;2023-05-19T04:04:00;3.50;;;3.17;;
6145;SDS011;3104;50.348;7.620;2023-05-19T04:06:26;5.10;;;2.30;;
6145;SDS011;3104;50.348;7.620;2023-05-19T04:08:52;2.60;;;2.40;;
6145;SDS011;3104;50.348;7.620;2023-05-19T04:11:17;5.30;;;2.37;;
6145;SDS011;3104;50.348;7.620;2023-05-19T04:13:46;3.17;;;2.40;;
6145;SDS011;3104;50.348;7.620;2023-05-19T04:16:12;5.47;;;2.83;;
6145;SDS011;3104;50.348;7.620;2023-05-19T04:18:37;5.10;;;2.47;;
6145;SDS011;3104;50.348;7.620;2023-05-19T04:21:03;7.90;;;5.40;;
6145;SDS011;3104;50.348;7.620;2023-05-19T04:23:29;6.60;;;5.50;;
6145;SDS011;3104;50.348;7.620;2023-05-19T04:25:55;4.47;;;3.00;;
6145;SDS011;3104;50.348;7.620;2023-05-19T04:28:22;3.33;;;2.30;;
6145;SDS011;3104;50.348;7.620;2023-05-19T04:30:47;6.73;;;2.60;;
6145;SDS011;3104;50.348;7.620;2023-05-19T04:33:14;5.97;;;3.50;;
6145;SDS011;3104;50.348;7.620;2023-05-19T04:35:40;6.23;;;2.60;;
6145;SDS011;3104;50.348;7.620;2023-05-19T04:38:07;4.80;;;2.50;;
6145;SDS011;3104;50.348;7.620;2023-05-19T04:40:34;9.20;;;7.13;;
6145;SDS011;3104;50.348;7.620;2023-05-19T04:42:59;8.03;;;6.63;;
6145;SDS011;3104;50.348;7.620;2023-05-19T04:45:26;13.40;;;5.90;;
6145;SDS011;3104;50.348;7.620;2023-05-19T04:47:51;4.47;;;3.10;;
6145;SDS011;3104;50.348;7.620;2023-05-19T04:50:21;4.97;;;3.23;;
6145;SDS011;3104;50.348;7.620;2023-05-19T04:52:47;5.93;;;3.70;;
6145;SDS011;3104;50.348;7.620;2023-05-19T04:55:13;4.40;;;3.53;;
6145;SDS011;3104;50.348;7.620;2023-05-19T04:57:39;7.37;;;3.20;;
6145;SDS011;3104;50.348;7.620;2023-05-19T05:00:05;6.77;;;4.60;;
6145;SDS011;3104;50.348;7.620;2023-05-19T05:02:32;21.37;;;13.80;;
6145;SDS011;3104;50.348;7.620;2023-05-19T05:04:58;7.57;;;5.73;;
6145;SDS011;3104;50.348;7.620;2023-05-19T05:07:24;4.40;;;4.00;;
6145;SDS011;3104;50.348;7.620;2023-05-19T05:09:49;5.10;;;2.93;;
6145;SDS011;3104;50.348;7.620;2023-05-19T05:12:16;5.00;;;3.00;;
6145;SDS011;3104;50.348;7.620;2023-05-19T05:14:42;3.50;;;3.20;;
6145;SDS011;3104;50.348;7.620;2023-05-19T05:17:09;9.27;;;3.40;;
6145;SDS011;3104;50.348;7.620;2023-05-19T05:19:35;4.83;;;3.17;;
6145;SDS011;3104;50.348;7.620;2023-05-19T05:22:01;2.57;;;2.37;;
6145;SDS011;3104;50.348;7.620;2023-05-19T05:24:28;3.27;;;2.97;;
6145;SDS011;3104;50.348;7.620;2023-05-19T05:26:54;4.90;;;4.43;;
6145;SDS011;3104;50.348;7.620;2023-05-19T05:29:19;4.87;;;3.80;;
6145;SDS011;3104;50.348;7.620;2023-05-19T05:31:45;9.13;;;4.40;;
6145;SDS011;3104;50.348;7.620;2023-05-19T05:34:11;5.07;;;3.30;;
6145;SDS011;3104;50.348;7.620;2023-05-19T05:36:36;4.40;;;3.17;;
6145;SDS011;3104;50.348;7.620;2023-05-19T05:39:02;5.40;;;3.90;;
6145;SDS011;3104;50.348;7.620;2023-05-19T05:41:29;5.20;;;3.50;;
6145;SDS011;3104;50.348;7.620;2023-05-19T05:43:59;4.20;;;3.80;;
6145;SDS011;3104;50.348;7.620;2023-05-19T05:46:25;5.77;;;4.30;;
6145;SDS011;3104;50.348;7.620;2023-05-19T05:48:51;4.83;;;3.60;;
6145;SDS011;3104;50.348;7.620;2023-05-19T05:51:17;4.60;;;3.43;;
6145;SDS011;3104;50.348;7.620;2023-05-19T05:53:45;5.70;;;4.03;;
6145;SDS011;3104;50.348;7.620;2023-05-19T05:56:17;5.57;;;3.50;;
6145;SDS011;3104;50.348;7.620;2023-05-19T05:58:43;4.53;;;4.13;;
6145;SDS011;3104;50.348;7.620;2023-05-19T06:01:08;6.80;;;3.70;;
6145;SDS011;3104;50.348;7.620;2023-05-19T06:03:41;5.57;;;3.87;;
6145;SDS011;3104;50.348;7.620;2023-05-19T06:06:09;4.53;;;3.90;;
6145;SDS011;3104;50.348;7.620;2023-05-19T06:08:35;4.20;;;3.60;;
6145;SDS011;3104;50.348;7.620;2023-05-19T06:11:01;4.87;;;3.63;;
6145;SDS011;3104;50.348;7.620;2023-05-19T06:13:36;4.90;;;3.77;;
6145;SDS011;3104;50.348;7.620;2023-05-19T06:16:02;6.00;;;4.10;;
6145;SDS011;3104;50.348;7.620;2023-05-19T06:18:28;7.40;;;4.80;;
6145;SDS011;3104;50.348;7.620;2023-05-19T06:20:54;7.57;;;4.07;;
6145;SDS011;3104;50.348;7.620;2023-05-19T06:23:20;7.70;;;3.97;;
6145;SDS011;3104;50.348;7.620;2023-05-19T06:25:46;4.63;;;4.23;;
6145;SDS011;3104;50.348;7.620;2023-05-19T06:28:11;9.40;;;4.00;;
6145;SDS011;3104;50.348;7.620;2023-05-19T06:30:37;5.80;;;3.90;;
6145;SDS011;3104;50.348;7.620;2023-05-19T06:33:02;5.33;;;3.23;;
6145;SDS011;3104;50.348;7.620;2023-05-19T06:35:28;7.60;;;3.60;;
6145;SDS011;3104;50.348;7.620;2023-05-19T06:37:54;7.97;;;3.80;;
6145;SDS011;3104;50.348;7.620;2023-05-19T06:40:20;5.63;;;3.80;;
6145;SDS011;3104;50.348;7.620;2023-05-19T06:42:46;4.63;;;3.97;;
6145;SDS011;3104;50.348;7.620;2023-05-19T06:45:12;4.37;;;3.10;;
6145;SDS011;3104;50.348;7.620;2023-05-19T06:47:37;4.20;;;3.43;;
6145;SDS011;3104;50.348;7.620;2023-05-19T06:50:06;7.37;;;3.27;;
6145;SDS011;3104;50.348;7.620;2023-05-19T06:52:32;3.80;;;3.50;;
6145;SDS011;3104;50.348;7.620;2023-05-19T06:54:58;5.40;;;4.07;;
6145;SDS011;3104;50.348;7.620;2023-05-19T06:57:23;4.83;;;3.50;;
6145;SDS011;3104;50.348;7.620;2023-05-19T06:59:49;4.23;;;3.87;;
6145;SDS011;3104;50.348;7.620;2023-05-19T07:02:14;8.80;;;3.63;;
6145;SDS011;3104;50.348;7.620;2023-05-19T07:04:40;4.20;;;3.80;;
6145;SDS011;3104;50.348;7.620;2023-05-19T07:07:06;7.10;;;3.83;;
6145;SDS011;3104;50.348;7.620;2023-05-19T07:09:32;5.30;;;3.43;;
6145;SDS011;3104;50.348;7.620;2023-05-19T07:11:58;7.03;;;4.10;;
6145;SDS011;3104;50.348;7.620;2023-05-19T07:14:25;8.73;;;4.70;;
6145;SDS011;3104;50.348;7.620;2023-05-19T07:16:51;7.20;;;5.20;;
6145;SDS011;3104;50.348;7.620;2023-05-19T07:19:16;4.90;;;3.60;;
6145;SDS011;3104;50.348;7.620;2023-05-19T07:21:45;9.33;;;4.43;;
6145;SDS011;3104;50.348;7.620;2023-05-19T07:24:11;4.47;;;4.07;;
6145;SDS011;3104;50.348;7.620;2023-05-19T07:26:36;7.70;;;4.07;;
6145;SDS011;3104;50.348;7.620;2023-05-19T07:29:02;5.27;;;3.77;;
6145;SDS011;3104;50.348;7.620;2023-05-19T07:31:28;5.90;;;4.07;;
6145;SDS011;3104;50.348;7.620;2023-05-19T07:33:53;6.57;;;3.43;;
6145;SDS011;3104;50.348;7.620;2023-05-19T07:36:19;8.30;;;3.60;;
6145;SDS011;3104;50.348;7.620;2023-05-19T07:38:45;6.03;;;4.17;;
6145;SDS011;3104;50.348;7.620;2023-05-19T07:41:10;7.10;;;4.73;;
6145;SDS011;3104;50.348;7.620;2023-05-19T07:43:36;3.60;;;3.20;;
6145;SDS011;3104;50.348;7.620;2023-05-19T07:46:02;6.30;;;3.50;;
6145;SDS011;3104;50.348;7.620;2023-05-19T07:51:50;5.07;;;3.47;;
6145;SDS011;3104;50.348;7.620;2023-05-19T07:54:16;8.50;;;3.57;;
6145;SDS011;3104;50.348;7.620;2023-05-19T07:56:42;6.73;;;3.70;;
6145;SDS011;3104;50.348;7.620;2023-05-19T07:59:07;4.57;;;3.60;;
6145;SDS011;3104;50.348;7.620;2023-05-19T08:01:33;10.00;;;3.37;;
6145;SDS011;3104;50.348;7.620;2023-05-19T08:03:58;6.03;;;3.60;;
6145;SDS011;3104;50.348;7.620;2023-05-19T08:06:24;6.20;;;4.23;;
6145;SDS011;3104;50.348;7.620;2023-05-19T08:08:50;5.33;;;3.00;;
6145;SDS011;3104;50.348;7.620;2023-05-19T08:11:16;3.70;;;2.70;;
6145;SDS011;3104;50.348;7.620;2023-05-19T08:13:42;5.00;;;4.10;;
6145;SDS011;3104;50.348;7.620;2023-05-19T08:16:07;7.57;;;5.47;;
6145;SDS011;3104;50.348;7.620;2023-05-19T08:18:33;7.93;;;3.70;;
6145;SDS011;3104;50.348;7.620;2023-05-19T08:20:58;3.27;;;2.97;;
6145;SDS011;3104;50.348;7.620;2023-05-19T08:23:24;4.03;;;3.10;;
6145;SDS011;3104;50.348;7.620;2023-05-19T08:25:49;6.30;;;3.77;;
6145;SDS011;3104;50.348;7.620;2023-05-19T08:28:15;4.70;;;2.30;;
6145;SDS011;3104;50.348;7.620;2023-05-19T08:30:40;7.33;;;2.93;;
6145;SDS011;3104;50.348;7.620;2023-05-19T08:33:06;4.17;;;2.40;;
6145;SDS011;3104;50.348;7.620;2023-05-19T08:35:32;9.67;;;2.50;;
6145;SDS011;3104;50.348;7.620;2023-05-19T08:37:58;3.77;;;1.90;;
6145;SDS011;3104;50.348;7.620;2023-05-19T08:40:23;3.80;;;2.10;;
6145;SDS011;3104;50.348;7.620;2023-05-19T08:42:51;7.70;;;3.63;;
6145;SDS011;3104;50.348;7.620;2023-05-19T08:45:17;2.90;;;2.13;;
6145;SDS011;3104;50.348;7.620;2023-05-19T08:47:46;8.40;;;2.47;;
6145;SDS011;3104;50.348;7.620;2023-05-19T08:50:16;3.97;;;2.30;;
6145;SDS011;3104;50.348;7.620;2023-05-19T08:55:25;6.27;;;2.37;;
6145;SDS011;3104;50.348;7.620;2023-05-19T08:57:58;4.00;;;3.10;;
6145;SDS011;3104;50.348;7.620;2023-05-19T09:00:27;5.37;;;2.60;;
6145;SDS011;3104;50.348;7.620;2023-05-19T09:02:54;4.10;;;2.27;;
6145;SDS011;3104;50.348;7.620;2023-05-19T09:05:20;3.70;;;2.13;;
6145;SDS011;3104;50.348;7.620;2023-05-19T09:07:47;5.23;;;2.20;;
6145;SDS011;3104;50.348;7.620;2023-05-19T09:10:13;2.47;;;2.27;;
6145;SDS011;3104;50.348;7.620;2023-05-19T09:12:41;3.90;;;2.23;;
6145;SDS011;3104;50.348;7.620;2023-05-19T09:15:12;4.27;;;3.40;;
6145;SDS011;3104;50.348;7.620;2023-05-19T09:17:40;3.03;;;2.70;;
6145;SDS011;3104;50.348;7.620;2023-05-19T09:20:05;5.67;;;2.87;;
6145;SDS011;3104;50.348;7.620;2023-05-19T09:22:44;3.33;;;2.20;;
6145;SDS011;3104;50.348;7.620;2023-05-19T09:25:17;6.17;;;2.33;;
6145;SDS011;3104;50.348;7.620;2023-05-19T09:27:45;5.80;;;2.30;;
6145;SDS011;3104;50.348;7.620;2023-05-19T09:30:12;5.77;;;2.43;;
6145;SDS011;3104;50.348;7.620;2023-05-19T09:32:38;2.40;;;2.20;;
6145;SDS011;3104;50.348;7.620;2023-05-19T09:35:03;10.60;;;2.80;;
6145;SDS011;3104;50.348;7.620;2023-05-19T09:37:29;3.60;;;2.30;;
6145;SDS011;3104;50.348;7.620;2023-05-19T09:39:56;3.00;;;2.40;;
6145;SDS011;3104;50.348;7.620;2023-05-19T09:42:25;4.67;;;2.90;;
6145;SDS011;3104;50.348;7.620;2023-05-19T09:45:00;2.50;;;1.97;;
6145;SDS011;3104;50.348;7.620;2023-05-19T09:47:31;5.70;;;2.37;;
6145;SDS011;3104;50.348;7.620;2023-05-19T09:49:58;3.37;;;2.13;;
6145;SDS011;3104;50.348;7.620;2023-05-19T09:52:23;3.10;;;2.30;;
6145;SDS011;3104;50.348;7.620;2023-05-19T09:54:49;4.57;;;2.57;;
6145;SDS011;3104;50.348;7.620;2023-05-19T09:57:15;3.73;;;2.43;;
6145;SDS011;3104;50.348;7.620;2023-05-19T09:59:41;2.30;;;2.13;;
6145;SDS011;3104;50.348;7.620;2023-05-19T10:02:12;3.80;;;1.93;;
6145;SDS011;3104;50.348;7.620;2023-05-19T10:04:41;3.30;;;2.30;;
6145;SDS011;3104;50.348;7.620;2023-05-19T10:07:06;7.83;;;2.47;;
6145;SDS011;3104;50.348;7.620;2023-05-19T10:09:35;4.70;;;2.37;;
6145;SDS011;3104;50.348;7.620;2023-05-19T10:12:01;3.43;;;2.40;;
6145;SDS011;3104;50.348;7.620;2023-05-19T10:14:28;2.63;;;1.60;;
6145;SDS011;3104;50.348;7.620;2023-05-19T10:16:55;2.67;;;1.93;;
6145;SDS011;3104;50.348;7.620;2023-05-19T10:19:23;4.00;;;2.03;;
6145;SDS011;3104;50.348;7.620;2023-05-19T10:21:49;2.27;;;2.03;;
6145;SDS011;3104;50.348;7.620;2023-05-19T10:24:16;3.33;;;2.70;;
6145;SDS011;3104;50.348;7.620;2023-05-19T10:26:45;4.17;;;2.30;;
6145;SDS011;3104;50.348;7.620;2023-05-19T10:29:22;5.43;;;2.07;;
6145;SDS011;3104;50.348;7.620;2023-05-19T10:31:56;2.47;;;1.93;;
6145;SDS011;3104;50.348;7.620;2023-05-19T10:40:02;6.70;;;2.33;;
6145;SDS011;3104;50.348;7.620;2023-05-19T10:42:39;2.87;;;2.43;;
6145;SDS011;3104;50.348;7.620;2023-05-19T10:45:12;4.17;;;2.13;;
6145;SDS011;3104;50.348;7.620;2023-05-19T10:47:44;2.90;;;2.60;;
6145;SDS011;3104;50.348;7.620;2023-05-19T10:50:10;5.30;;;2.53;;
6145;SDS011;3104;50.348;7.620;2023-05-19T10:52:37;3.40;;;2.30;;
6145;SDS011;3104;50.348;7.620;2023-05-19T10:55:07;2.87;;;2.00;;
6145;SDS011;3104;50.348;7.620;2023-05-19T10:57:33;2.03;;;1.83;;
6145;SDS011;3104;50.348;7.620;2023-05-19T11:00:01;3.67;;;2.70;;
6145;SDS011;3104;50.348;7.620;2023-05-19T11:02:36;4.20;;;2.17;;
6145;SDS011;3104;50.348;7.620;2023-05-19T11:05:10;3.70;;;2.70;;
6145;SDS011;3104;50.348;7.620;2023-05-19T11:07:41;5.80;;;2.23;;
6145;SDS011;3104;50.348;7.620;2023-05-19T11:10:08;3.43;;;2.33;;
6145;SDS011;3104;50.348;7.620;2023-05-19T11:12:41;4.50;;;2.10;;
6145;SDS011;3104;50.348;7.620;2023-05-19T11:15:18;7.13;;;2.53;;
6145;SDS011;3104;50.348;7.620;2023-05-19T11:17:50;5.13;;;2.10;;
6145;SDS011;3104;50.348;7.620;2023-05-19T11:20:26;9.20;;;8.40;;
6145;SDS011;3104;50.348;7.620;2023-05-19T11:25:39;2.80;;;2.50;;
6145;SDS011;3104;50.348;7.620;2023-05-19T11:28:16;4.63;;;1.83;;
6145;SDS011;3104;50.348;7.620;2023-05-19T11:30:44;2.90;;;1.87;;
6145;SDS011;3104;50.348;7.620;2023-05-19T11:33:10;3.27;;;2.10;;
6145;SDS011;3104;50.348;7.620;2023-05-19T11:35:37;3.57;;;2.00;;
6145;SDS011;3104;50.348;7.620;2023-05-19T11:38:04;1.90;;;1.70;;
6145;SDS011;3104;50.348;7.620;2023-05-19T11:40:31;2.43;;;2.20;;
6145;SDS011;3104;50.348;7.620;2023-05-19T11:42:57;3.30;;;2.33;;
6145;SDS011;3104;50.348;7.620;2023-05-19T11:45:24;2.80;;;2.00;;
6145;SDS011;3104;50.348;7.620;2023-05-19T11:47:50;4.33;;;2.23;;
6145;SDS011;3104;50.348;7.620;2023-05-19T11:50:16;2.70;;;1.90;;
6145;SDS011;3104;50.348;7.620;2023-05-19T11:52:45;2.93;;;1.90;;
6145;SDS011;3104;50.348;7.620;2023-05-19T11:55:18;4.33;;;2.17;;
6145;SDS011;3104;50.348;7.620;2023-05-19T11:57:59;4.23;;;2.20;;
6145;SDS011;3104;50.348;7.620;2023-05-19T12:00:26;2.07;;;1.70;;
6145;SDS011;3104;50.348;7.620;2023-05-19T12:02:53;2.77;;;2.10;;
6145;SDS011;3104;50.348;7.620;2023-05-19T12:05:22;3.70;;;2.40;;
6145;SDS011;3104;50.348;7.620;2023-05-19T12:07:49;2.83;;;1.93;;
6145;SDS011;3104;50.348;7.620;2023-05-19T12:10:22;2.30;;;1.70;;
6145;SDS011;3104;50.348;7.620;2023-05-19T12:12:50;1.80;;;1.70;;
6145;SDS011;3104;50.348;7.620;2023-05-19T12:15:22;3.87;;;1.63;;
6145;SDS011;3104;50.348;7.620;2023-05-19T12:17:49;2.70;;;2.10;;
6145;SDS011;3104;50.348;7.620;2023-05-19T12:20:15;4.90;;;2.00;;
6145;SDS011;3104;50.348;7.620;2023-05-19T12:22:45;2.33;;;2.13;;
6145;SDS011;3104;50.348;7.620;2023-05-19T12:25:11;3.13;;;2.20;;
6145;SDS011;3104;50.348;7.620;2023-05-19T12:27:38;1.97;;;1.83;;
6145;SDS011;3104;50.348;7.620;2023-05-19T12:30:07;4.07;;;1.90;;
6145;SDS011;3104;50.348;7.620;2023-05-19T12:32:33;4.47;;;2.13;;
6145;SDS011;3104;50.348;7.620;2023-05-19T12:35:01;2.40;;;2.20;;
6145;SDS011;3104;50.348;7.620;2023-05-19T12:37:29;5.50;;;2.70;;
6145;SDS011;3104;50.348;7.620;2023-05-19T12:39:55;3.87;;;2.03;;
6145;SDS011;3104;50.348;7.620;2023-05-19T12:42:21;2.57;;;1.83;;
6145;SDS011;3104;50.348;7.620;2023-05-19T12:44:47;3.50;;;2.03;;
6145;SDS011;3104;50.348;7.620;2023-05-19T12:47:15;3.50;;;2.00;;
6145;SDS011;3104;50.348;7.620;2023-05-19T12:52:43;2.00;;;1.90;;
6145;SDS011;3104;50.348;7.620;2023-05-19T12:55:10;2.07;;;1.87;;
6145;SDS011;3104;50.348;7.620;2023-05-19T12:57:37;3.53;;;1.73;;
6145;SDS011;3104;50.348;7.620;2023-05-19T13:00:13;2.63;;;1.53;;
6145;SDS011;3104;50.348;7.620;2023-05-19T13:03:05;2.27;;;1.73;;
6145;SDS011;3104;50.348;7.620;2023-05-19T13:05:39;4.23;;;2.03;;
6145;SDS011;3104;50.348;7.620;2023-05-19T13:08:10;4.10;;;2.20;;
6145;SDS011;3104;50.348;7.620;2023-05-19T13:10:40;2.53;;;1.80;;
6145;SDS011;3104;50.348;7.620;2023-05-19T13:13:08;1.83;;;1.73;;
6145;SDS011;3104;50.348;7.620;2023-05-19T13:15:35;3.17;;;2.40;;
6145;SDS011;3104;50.348;7.620;2023-05-19T13:18:03;2.40;;;1.73;;
6145;SDS011;3104;50.348;7.620;2023-05-19T13:20:30;2.53;;;2.07;;
6145;SDS011;3104;50.348;7.620;2023-05-19T13:22:59;2.07;;;1.90;;
6145;SDS011;3104;50.348;7.620;2023-05-19T13:25:25;2.20;;;2.00;;
6145;SDS011;3104;50.348;7.620;2023-05-19T13:27:51;1.97;;;1.73;;
6145;SDS011;3104;50.348;7.620;2023-05-19T13:30:18;2.43;;;1.90;;
6145;SDS011;3104;50.348;7.620;2023-05-19T13:32:44;1.70;;;1.60;;
6145;SDS011;3104;50.348;7.620;2023-05-19T13:35:11;3.43;;;1.90;;
6145;SDS011;3104;50.348;7.620;2023-05-19T13:37:37;2.80;;;2.60;;
6145;SDS011;3104;50.348;7.620;2023-05-19T13:40:03;2.80;;;1.80;;
6145;SDS011;3104;50.348;7.620;2023-05-19T13:42:33;2.30;;;2.00;;
6145;SDS011;3104;50.348;7.620;2023-05-19T13:44:59;2.17;;;1.97;;
6145;SDS011;3104;50.348;7.620;2023-05-19T13:47:25;1.97;;;1.73;;
6145;SDS011;3104;50.348;7.620;2023-05-19T13:49:51;5.43;;;2.43;;
6145;SDS011;3104;50.348;7.620;2023-05-19T13:52:17;3.47;;;2.20;;
6145;SDS011;3104;50.348;7.620;2023-05-19T13:54:44;2.20;;;1.90;;
6145;SDS011;3104;50.348;7.620;2023-05-19T13:57:10;3.07;;;2.00;;
6145;SDS011;3104;50.348;7.620;2023-05-19T13:59:36;2.60;;;2.10;;
6145;SDS011;3104;50.348;7.620;2023-05-19T14:02:01;2.63;;;2.00;;
6145;SDS011;3104;50.348;7.620;2023-05-19T14:04:28;3.67;;;2.37;;
6145;SDS011;3104;50.348;7.620;2023-05-19T14:06:54;3.67;;;2.07;;
6145;SDS011;3104;50.348;7.620;2023-05-19T14:09:19;1.93;;;1.83;;
6145;SDS011;3104;50.348;7.620;2023-05-19T14:11:45;4.63;;;2.33;;
6145;SDS011;3104;50.348;7.620;2023-05-19T14:14:11;1.80;;;1.70;;
6145;SDS011;3104;50.348;7.620;2023-05-19T14:16:38;1.77;;;1.67;;
6145;SDS011;3104;50.348;7.620;2023-05-19T14:19:04;1.77;;;1.60;;
6145;SDS011;3104;50.348;7.620;2023-05-19T14:21:30;5.67;;;2.37;;
6145;SDS011;3104;50.348;7.620;2023-05-19T14:23:56;1.80;;;1.70;;
6145;SDS011;3104;50.348;7.620;2023-05-19T14:26:22;2.40;;;2.20;;
6145;SDS011;3104;50.348;7.620;2023-05-19T14:28:48;2.10;;;1.90;;
6145;SDS011;3104;50.348;7.620;2023-05-19T14:31:13;1.80;;;1.70;;
6145;SDS011;3104;50.348;7.620;2023-05-19T14:33:39;4.63;;;2.10;;
6145;SDS011;3104;50.348;7.620;2023-05-19T14:36:05;2.40;;;2.00;;
6145;SDS011;3104;50.348;7.620;2023-05-19T14:38:31;3.50;;;1.93;;
6145;SDS011;3104;50.348;7.620;2023-05-19T14:40:57;5.13;;;2.20;;
6145;SDS011;3104;50.348;7.620;2023-05-19T14:43:23;3.27;;;2.07;;
6145;SDS011;3104;50.348;7.620;2023-05-19T14:45:48;3.53;;;2.10;;
6145;SDS011;3104;50.348;7.620;2023-05-19T14:48:14;2.90;;;2.30;;
6145;SDS011;3104;50.348;7.620;2023-05-19T14:50:40;3.63;;;1.70;;
6145;SDS011;3104;50.348;7.620;2023-05-19T14:53:05;6.77;;;1.77;;
6145;SDS011;3104;50.348;7.620;2023-05-19T14:55:31;3.03;;;1.80;;
6145;SDS011;3104;50.348;7.620;2023-05-19T14:57:57;4.57;;;2.77;;
6145;SDS011;3104;50.348;7.620;2023-05-19T15:00:22;2.50;;;2.23;;
6145;SDS011;3104;50.348;7.620;2023-05-19T15:02:50;4.10;;;1.90;;
6145;SDS011;3104;50.348;7.620;2023-05-19T15:05:19;6.60;;;4.00;;
6145;SDS011;3104;50.348;7.620;2023-05-19T15:07:46;2.83;;;2.10;;
6145;SDS011;3104;50.348;7.620;2023-05-19T15:10:12;3.97;;;2.37;;
6145;SDS011;3104;50.348;7.620;2023-05-19T15:12:37;2.67;;;2.17;;
6145;SDS011;3104;50.348;7.620;2023-05-19T15:15:03;4.17;;;2.30;;
6145;SDS011;3104;50.348;7.620;2023-05-19T15:17:29;3.53;;;1.87;;
6145;SDS011;3104;50.348;7.620;2023-05-19T15:19:55;2.20;;;2.10;;
6145;SDS011;3104;50.348;7.620;2023-05-19T15:22:20;2.83;;;1.80;;
6145;SDS011;3104;50.348;7.620;2023-05-19T15:24:46;5.93;;;2.10;;
6145;SDS011;3104;50.348;7.620;2023-05-19T15:27:11;5.47;;;2.20;;
6145;SDS011;3104;50.348;7.620;2023-05-19T15:29:37;5.07;;;2.40;;
6145;SDS011;3104;50.348;7.620;2023-05-19T15:32:03;4.90;;;2.50;;
6145;SDS011;3104;50.348;7.620;2023-05-19T15:34:29;2.17;;;1.80;;
6145;SDS011;3104;50.348;7.620;2023-05-19T15:36:54;2.93;;;1.70;;
6145;SDS011;3104;50.348;7.620;2023-05-19T15:39:20;2.80;;;2.00;;
6145;SDS011;3104;50.348;7.620;2023-05-19T15:41:45;3.73;;;2.43;;
6145;SDS011;3104;50.348;7.620;2023-05-19T15:44:11;3.47;;;2.33;;
6145;SDS011;3104;50.348;7.620;2023-05-19T15:46:37;2.20;;;1.87;;